createdAt,value
2022-10-24T00:02:14.079Z,100431.81
2022-10-24T00:04:52.904Z,100424.59
2022-10-24T00:07:21.155Z,100428.16
2022-10-24T00:09:56.578Z,100414.13
2022-10-24T00:12:25.003Z,100418.59
2022-10-24T00:14:56.885Z,100429.16
2022-10-24T00:17:35.535Z,100423.22
2022-10-24T00:20:04.711Z,100414.53
2022-10-24T00:22:33.104Z,100420.72
2022-10-24T00:25:01.650Z,100418.09
2022-10-24T00:27:30.019Z,100407.03
2022-10-24T00:30:07.497Z,100418.44
2022-10-24T00:32:37.170Z,100407.28
2022-10-24T00:35:06.441Z,100416.00
2022-10-24T00:37:40.553Z,100402.81
2022-10-24T00:40:11.476Z,100403.59
2022-10-24T00:42:40.020Z,100404.38
2022-10-24T00:45:47.559Z,100398.22
2022-10-24T00:48:29.581Z,100407.06
2022-10-24T00:51:03.219Z,100407.19
2022-10-24T00:53:37.175Z,100405.50
2022-10-24T00:56:09.458Z,100403.84
2022-10-24T00:58:40.303Z,100392.50
2022-10-24T01:01:15.913Z,100397.81
2022-10-24T01:06:48.560Z,100401.28
2022-10-24T01:09:36.254Z,100396.97
2022-10-24T01:12:23.335Z,100394.41
2022-10-24T01:15:03.186Z,100399.69
2022-10-24T01:17:39.778Z,100392.66
2022-10-24T01:21:26.234Z,100395.19
2022-10-24T01:24:33.585Z,100391.44
2022-10-24T01:27:49.681Z,100389.53
2022-10-24T01:30:21.821Z,100383.13
2022-10-24T01:32:58.719Z,100384.75
2022-10-24T01:35:40.443Z,100367.91
2022-10-24T01:38:18.519Z,100364.97
2022-10-24T01:40:55.265Z,100372.78
2022-10-24T01:43:28.453Z,100349.72
2022-10-24T01:46:04.998Z,100351.50
2022-10-24T01:48:39.866Z,100344.31
2022-10-24T01:51:10.814Z,100332.19
2022-10-24T01:53:40.860Z,100342.38
2022-10-24T01:56:21.550Z,100338.84
2022-10-24T01:59:06.814Z,100329.22
2022-10-24T02:01:41.306Z,100316.84
2022-10-24T02:04:12.517Z,100306.41
2022-10-24T02:06:51.322Z,100321.00
2022-10-24T02:09:34.272Z,100321.84
2022-10-24T02:12:02.888Z,100322.66
2022-10-24T02:14:46.151Z,100316.44
2022-10-24T02:17:24.697Z,100294.63
2022-10-24T02:20:34.301Z,100305.84
2022-10-24T02:29:45.461Z,100291.81
2022-10-24T02:32:44.403Z,100295.28
2022-10-24T02:35:18.987Z,100282.88
2022-10-24T02:38:08.699Z,100278.50
2022-10-24T02:40:38.367Z,100282.03
2022-10-24T02:43:29.152Z,100272.19
2022-10-24T02:46:11.317Z,100272.09
2022-10-24T02:51:52.680Z,100261.91
2022-10-24T02:54:26.636Z,100262.66
2022-10-24T03:00:01.209Z,100240.66
2022-10-24T03:02:29.411Z,100251.25
2022-10-24T03:04:58.879Z,100249.59
2022-10-24T03:07:27.100Z,100250.56
2022-10-24T03:09:55.254Z,100248.78
2022-10-24T03:12:24.214Z,100252.97
2022-10-24T03:14:52.341Z,100244.00
2022-10-24T03:17:21.764Z,100245.66
2022-10-24T03:19:50.385Z,100248.22
2022-10-24T03:22:20.015Z,100242.81
2022-10-24T03:24:55.282Z,100240.09
2022-10-24T03:27:24.217Z,100240.91
2022-10-24T03:29:52.297Z,100243.44
2022-10-24T03:32:20.560Z,100238.03
2022-10-24T03:34:48.671Z,100244.25
2022-10-24T03:37:16.748Z,100238.97
2022-10-24T03:39:46.700Z,100233.69
2022-10-24T03:42:14.767Z,100245.19
2022-10-24T03:44:42.850Z,100239.91
2022-10-24T03:47:11.002Z,100253.13
2022-10-24T03:49:39.127Z,100252.19
2022-10-24T03:52:07.659Z,100244.31
2022-10-24T03:54:36.539Z,100246.91
2022-10-24T03:57:06.269Z,100238.16
2022-10-24T03:59:34.405Z,100241.72
2022-10-24T04:02:03.063Z,100245.19
2022-10-24T04:04:31.435Z,100245.19
2022-10-24T04:07:00.339Z,100247.88
2022-10-24T04:09:29.117Z,100247.91
2022-10-24T04:11:57.174Z,100248.94
2022-10-24T04:14:26.626Z,100240.28
2022-10-24T04:16:54.764Z,100248.44
2022-10-24T04:19:23.737Z,100250.47
2022-10-24T04:21:51.865Z,100248.00
2022-10-24T04:24:20.382Z,100241.16
2022-10-24T04:26:48.537Z,100243.88
2022-10-24T04:29:16.606Z,100246.72
2022-10-24T04:31:46.030Z,100239.97
2022-10-24T04:34:14.169Z,100241.09
2022-10-24T04:36:42.274Z,100242.19
2022-10-24T04:39:10.458Z,100233.44
2022-10-24T04:41:38.738Z,100229.13
2022-10-24T04:44:07.034Z,100238.06
2022-10-24T04:46:35.177Z,100233.81
2022-10-24T04:49:05.325Z,100230.28
2022-10-24T04:51:33.416Z,100225.09
2022-10-24T04:54:01.541Z,100232.22
2022-10-24T04:56:29.652Z,100227.88
2022-10-24T04:58:58.113Z,100217.31
2022-10-24T05:01:26.265Z,100224.38
2022-10-24T05:03:54.415Z,100231.38
2022-10-24T05:06:25.753Z,100227.03
2022-10-24T05:08:53.875Z,100236.78
2022-10-24T05:11:21.964Z,100235.06
2022-10-24T05:13:50.126Z,100234.19
2022-10-24T05:16:19.438Z,100238.56
2022-10-24T05:18:47.573Z,100232.44
2022-10-24T05:21:15.710Z,100241.25
2022-10-24T05:23:45.260Z,100230.69
2022-10-24T05:26:13.388Z,100232.44
2022-10-24T05:28:41.481Z,100231.50
2022-10-24T05:31:09.628Z,100237.63
2022-10-24T05:33:37.808Z,100234.03
2022-10-24T05:36:08.749Z,100230.41
2022-10-24T05:38:37.156Z,100222.47
2022-10-24T05:41:06.915Z,100230.41
2022-10-24T05:43:35.080Z,100224.31
2022-10-24T05:46:03.352Z,100232.22
2022-10-24T05:48:31.449Z,100227.91
2022-10-24T05:51:00.349Z,100224.56
2022-10-24T05:53:28.643Z,100230.84
2022-10-24T05:55:58.377Z,100231.81
2022-10-24T05:58:27.840Z,100233.59
2022-10-24T06:00:55.956Z,100234.50
2022-10-24T06:03:24.693Z,100227.47
2022-10-24T06:05:52.905Z,100235.47
2022-10-24T06:08:21.037Z,100230.13
2022-10-24T06:10:51.029Z,100229.03
2022-10-24T06:13:19.578Z,100227.97
2022-10-24T06:15:48.960Z,100224.22
2022-10-24T06:18:17.062Z,100224.91
2022-10-24T06:20:45.088Z,100227.34
2022-10-24T06:23:13.303Z,100219.34
2022-10-24T06:25:42.457Z,100223.53
2022-10-24T06:28:12.226Z,100225.19
2022-10-24T06:30:41.462Z,100221.53
2022-10-24T06:33:11.507Z,100222.28
2022-10-24T06:35:39.680Z,100221.31
2022-10-24T06:38:07.854Z,100225.75
2022-10-24T06:40:39.798Z,100211.72
2022-10-24T06:43:08.810Z,100222.28
2022-10-24T06:45:38.894Z,100225.94
2022-10-24T06:48:07.690Z,100226.16
2022-10-24T06:50:40.402Z,100229.78
2022-10-24T06:53:09.271Z,100233.44
2022-10-24T06:55:40.449Z,100235.16
2022-10-24T06:58:08.743Z,100240.28
2022-10-24T07:00:38.982Z,100242.91
2022-10-24T07:03:07.121Z,100243.81
2022-10-24T07:05:38.223Z,100246.50
2022-10-24T07:08:07.279Z,100242.06
2022-10-24T07:10:35.658Z,100257.06
2022-10-24T07:13:03.780Z,100257.03
2022-10-24T07:15:31.911Z,100257.94
2022-10-24T07:18:01.887Z,100256.06
2022-10-24T07:20:30.414Z,100257.59
2022-10-24T07:23:00.002Z,100251.75
2022-10-24T07:25:29.601Z,100265.28
2022-10-24T07:27:57.719Z,100253.41
2022-10-24T07:30:26.136Z,100265.47
2022-10-24T07:32:55.590Z,100252.09
2022-10-24T07:35:23.821Z,100249.34
2022-10-24T07:37:53.436Z,100255.34
2022-10-24T07:40:23.098Z,100260.66
2022-10-24T07:42:51.196Z,100252.00
2022-10-24T07:45:19.499Z,100253.91
2022-10-24T07:47:48.407Z,100247.03
2022-10-24T07:50:17.268Z,100248.72
2022-10-24T07:52:45.363Z,100249.56
2022-10-24T07:55:13.524Z,100256.47
2022-10-24T07:57:43.426Z,100246.56
2022-10-24T08:00:13.562Z,100251.47
2022-10-24T08:02:41.846Z,100263.38
2022-10-24T08:05:12.155Z,100248.78
2022-10-24T08:07:40.248Z,100254.75
2022-10-24T08:10:10.331Z,100245.13
2022-10-24T08:12:38.511Z,100251.06
2022-10-24T08:15:09.295Z,100249.03
2022-10-24T08:17:37.788Z,100244.25
2022-10-24T08:20:07.124Z,100238.59
2022-10-24T08:22:36.024Z,100226.09
2022-10-24T08:25:06.378Z,100236.59
2022-10-24T08:27:34.514Z,100242.97
2022-10-24T08:30:02.641Z,100244.13
2022-10-24T08:32:32.083Z,100236.13
2022-10-24T08:35:00.381Z,100247.19
2022-10-24T08:37:28.831Z,100252.03
2022-10-24T08:39:56.905Z,100246.38
2022-10-24T08:42:26.845Z,100241.53
2022-10-24T08:44:55.798Z,100249.25
2022-10-24T08:50:15.245Z,100248.88
2022-10-24T08:52:47.951Z,100241.75
2022-10-24T08:55:25.648Z,100247.03
2022-10-24T08:58:15.826Z,100257.66
2022-10-24T09:00:47.159Z,100249.81
2022-10-24T09:03:37.212Z,100231.13
2022-10-24T09:06:19.291Z,100254.00
2022-10-24T09:08:53.197Z,100264.44
2022-10-24T09:11:31.192Z,100258.91
2022-10-24T09:14:02.375Z,100258.63
2022-10-24T09:16:30.756Z,100262.00
2022-10-24T09:19:00.895Z,100271.66
2022-10-24T09:21:29.177Z,100265.47
2022-10-24T09:23:57.800Z,100270.63
2022-10-24T09:26:30.176Z,100276.75
2022-10-24T09:28:58.509Z,100262.53
2022-10-24T09:31:28.402Z,100271.38
2022-10-24T09:34:00.309Z,100282.72
2022-10-24T09:36:31.967Z,100291.03
2022-10-24T09:39:32.920Z,100278.34
2022-10-24T09:42:02.134Z,100287.22
2022-10-24T09:44:40.804Z,100296.22
2022-10-24T09:47:25.269Z,100299.91
2022-10-24T09:49:54.045Z,100286.78
2022-10-24T09:52:26.662Z,100296.34
2022-10-24T09:55:13.372Z,100316.41
2022-10-24T09:57:41.841Z,100310.78
2022-10-24T10:00:24.481Z,100321.88
2022-10-24T10:03:03.008Z,100325.94
2022-10-24T10:05:46.092Z,100320.53
2022-10-24T10:08:21.406Z,100321.38
2022-10-24T10:11:07.856Z,100326.56
2022-10-24T10:13:49.359Z,100333.22
2022-10-24T10:16:26.044Z,100334.69
2022-10-24T10:19:04.710Z,100322.00
2022-10-24T10:21:56.466Z,100323.69
2022-10-24T10:24:40.821Z,100336.09
2022-10-24T10:27:33.215Z,100354.00
2022-10-24T10:30:19.660Z,100357.81
2022-10-24T10:33:15.790Z,100356.25
2022-10-24T10:35:51.623Z,100358.19
2022-10-24T10:38:57.888Z,100360.03
2022-10-24T10:41:42.114Z,100343.16
2022-10-24T10:44:32.494Z,100345.81
2022-10-24T10:47:14.007Z,100365.22
2022-10-24T10:49:44.124Z,100363.38
2022-10-24T10:52:17.343Z,100349.78
2022-10-24T10:55:07.215Z,100357.00
2022-10-24T10:57:45.959Z,100352.75
2022-10-24T11:00:17.195Z,100337.56
2022-10-24T11:03:18.182Z,100356.59
2022-10-24T11:05:55.423Z,100363.13
2022-10-24T11:08:42.605Z,100366.13
2022-10-24T11:11:17.553Z,100357.19
2022-10-24T11:13:56.911Z,100352.25
2022-10-24T11:16:29.420Z,100360.78
2022-10-24T11:19:03.155Z,100370.47
2022-10-24T11:21:34.581Z,100374.00
2022-10-24T11:24:13.459Z,100381.16
2022-10-24T11:26:47.018Z,100372.53
2022-10-24T11:29:24.894Z,100379.63
2022-10-24T11:31:58.134Z,100381.16
2022-10-24T11:34:32.579Z,100398.47
2022-10-24T11:37:07.522Z,100405.00
2022-10-24T11:39:43.888Z,100401.78
2022-10-24T11:42:17.242Z,100397.59
2022-10-24T11:44:55.024Z,100410.72
2022-10-24T11:47:49.026Z,100396.69
2022-10-24T11:50:28.269Z,100413.44
2022-10-24T11:53:03.969Z,100405.41
2022-10-24T11:55:38.800Z,100402.16
2022-10-24T11:58:15.090Z,100414.88
2022-10-24T12:01:12.347Z,100408.22
2022-10-24T12:04:43.031Z,100413.53
2022-10-24T12:07:58.575Z,100421.44
2022-10-24T12:10:50.401Z,100409.13
2022-10-24T12:13:54.705Z,100427.53
2022-10-24T12:16:40.019Z,100424.38
2022-10-24T12:19:15.043Z,100431.41
2022-10-24T12:21:48.823Z,100436.41
2022-10-24T12:24:30.176Z,100431.63
2022-10-24T12:27:02.644Z,100445.09
2022-10-24T12:29:34.172Z,100438.03
2022-10-24T12:32:25.295Z,100440.81
2022-10-24T12:35:25.190Z,100447.22
2022-10-24T12:37:49.137Z,100455.84
2022-10-24T12:40:55.581Z,100447.00
2022-10-24T12:43:36.117Z,100451.69
2022-10-24T12:46:54.543Z,100457.50
2022-10-24T12:49:30.343Z,100456.53
2022-10-24T12:51:59.002Z,100458.84
2022-10-24T12:54:42.230Z,100469.97
2022-10-24T12:57:33.022Z,100472.47
2022-10-24T13:00:03.061Z,100460.75
2022-10-24T13:03:06.864Z,100461.63
2022-10-24T13:05:57.893Z,100465.06
2022-10-24T13:08:48.331Z,100462.97
2022-10-24T13:11:41.385Z,100477.47
2022-10-24T13:14:31.198Z,100483.00
2022-10-24T13:17:06.711Z,100483.19
2022-10-24T13:19:35.050Z,100479.28
2022-10-24T13:22:04.728Z,100482.47
2022-10-24T13:24:37.232Z,100479.75
2022-10-24T13:27:29.179Z,100475.06
2022-10-24T13:30:33.779Z,100485.69
2022-10-24T13:33:42.727Z,100499.22
2022-10-24T13:36:18.518Z,100484.22
2022-10-24T13:38:53.810Z,100503.22
2022-10-24T13:41:29.161Z,100500.06
2022-10-24T13:44:04.448Z,100507.78
2022-10-24T13:46:42.146Z,100506.28
2022-10-24T13:49:18.829Z,100501.81
2022-10-24T13:51:52.493Z,100507.81
2022-10-24T13:54:26.221Z,100513.38
2022-10-24T13:56:57.135Z,100521.06
2022-10-24T13:59:34.648Z,100518.22
2022-10-24T14:02:06.294Z,100527.78
2022-10-24T14:04:36.148Z,100528.63
2022-10-24T14:07:07.150Z,100528.72
2022-10-24T14:09:43.367Z,100525.41
2022-10-24T14:12:20.677Z,100522.41
2022-10-24T14:14:51.599Z,100526.22
2022-10-24T14:17:26.005Z,100521.84
2022-10-24T14:19:57.254Z,100535.50
2022-10-24T14:22:29.487Z,100529.56
2022-10-24T14:24:59.097Z,100526.34
2022-10-24T14:27:27.522Z,100540.91
2022-10-24T14:30:01.990Z,100541.13
2022-10-24T14:32:32.434Z,100540.28
2022-10-24T14:35:02.754Z,100537.78
2022-10-24T14:37:36.204Z,100545.06
2022-10-24T14:40:08.211Z,100511.50
2022-10-24T14:42:36.512Z,100540.09
2022-10-24T14:45:05.607Z,100548.13
2022-10-24T14:47:38.897Z,100548.31
2022-10-24T14:50:41.825Z,100553.97
2022-10-24T14:53:25.142Z,100565.66
2022-10-24T14:55:58.416Z,100561.50
2022-10-24T14:58:29.653Z,100563.38
2022-10-24T15:00:58.888Z,100568.78
2022-10-24T15:03:29.157Z,100561.91
2022-10-24T15:06:10.770Z,100563.84
2022-10-24T15:11:22.184Z,100566.78
2022-10-24T15:14:06.178Z,100574.00
2022-10-24T15:16:38.654Z,100575.06
2022-10-24T15:19:13.888Z,100574.38
2022-10-24T15:21:46.039Z,100583.25
2022-10-24T15:24:23.330Z,100581.56
2022-10-24T15:27:11.787Z,100579.06
2022-10-24T15:29:42.498Z,100586.19
2022-10-24T15:32:12.606Z,100582.72
2022-10-24T15:34:42.386Z,100584.47
2022-10-24T15:37:23.136Z,100587.97
2022-10-24T15:39:51.894Z,100589.78
2022-10-24T15:42:29.937Z,100590.81
2022-10-24T15:44:59.381Z,100607.81
2022-10-24T15:47:27.590Z,100601.81
2022-10-24T15:49:55.648Z,100602.94
2022-10-24T15:52:23.830Z,100610.06
2022-10-24T15:54:51.943Z,100620.75
2022-10-24T15:57:21.938Z,100619.00
2022-10-24T15:59:50.049Z,100620.03
2022-10-24T16:02:23.884Z,100615.91
2022-10-24T16:04:52.115Z,100630.34
2022-10-24T16:07:20.666Z,100638.34
2022-10-24T16:09:48.828Z,100629.69
2022-10-24T16:12:16.983Z,100632.34
2022-10-24T16:14:46.582Z,100637.72
2022-10-24T16:17:14.670Z,100626.34
2022-10-24T16:19:42.783Z,100650.19
2022-10-24T16:22:11.449Z,100645.84
2022-10-24T16:24:39.579Z,100653.91
2022-10-24T16:27:08.089Z,100653.94
2022-10-24T16:29:36.252Z,100653.94
2022-10-24T16:32:06.184Z,100658.34
2022-10-24T16:34:34.306Z,100657.41
2022-10-24T16:37:03.646Z,100666.28
2022-10-24T16:39:33.775Z,100661.91
2022-10-24T16:42:04.608Z,100674.34
2022-10-24T16:44:36.876Z,100678.00
2022-10-24T16:47:06.952Z,100679.00
2022-10-24T16:49:35.053Z,100688.81
2022-10-24T16:52:03.249Z,100697.63
2022-10-24T16:54:33.484Z,100693.44
2022-10-24T16:57:01.614Z,100697.28
2022-10-24T16:59:29.746Z,100700.09
2022-10-24T17:01:57.964Z,100695.69
2022-10-24T17:04:32.802Z,100698.41
2022-10-24T17:07:04.259Z,100705.59
2022-10-24T17:09:32.564Z,100705.72
2022-10-24T17:12:00.637Z,100704.16
2022-10-24T17:14:28.788Z,100711.28
2022-10-24T17:16:57.400Z,100708.63
2022-10-24T17:19:26.909Z,100705.22
2022-10-24T17:21:55.545Z,100710.56
2022-10-24T17:24:26.503Z,100726.41
2022-10-24T17:26:55.372Z,100717.66
2022-10-24T17:29:28.356Z,100725.75
2022-10-24T17:31:58.088Z,100719.88
2022-10-24T17:34:28.627Z,100721.00
2022-10-24T17:37:07.840Z,100716.78
2022-10-24T17:39:45.734Z,100717.81
2022-10-24T17:42:14.460Z,100725.88
2022-10-24T17:44:44.038Z,100731.28
2022-10-24T17:47:13.233Z,100733.09
2022-10-24T17:49:42.885Z,100737.63
2022-10-24T17:52:13.608Z,100734.22
2022-10-24T17:54:45.662Z,100739.53
2022-10-24T17:57:14.050Z,100735.22
2022-10-24T17:59:42.475Z,100743.19
2022-10-24T18:02:14.073Z,100738.84
2022-10-24T18:04:44.949Z,100744.22
2022-10-24T18:07:13.118Z,100746.91
2022-10-24T18:09:42.053Z,100742.50
2022-10-24T18:12:10.397Z,100740.81
2022-10-24T18:14:38.757Z,100740.06
2022-10-24T18:17:06.930Z,100740.13
2022-10-24T18:19:35.070Z,100747.16
2022-10-24T18:22:04.634Z,100749.84
2022-10-24T18:24:33.390Z,100749.91
2022-10-24T18:27:01.527Z,100757.84
2022-10-24T18:29:29.752Z,100752.63
2022-10-24T18:31:58.314Z,100748.22
2022-10-24T18:34:27.166Z,100750.06
2022-10-24T18:36:55.308Z,100753.63
2022-10-24T18:39:27.779Z,100753.66
2022-10-24T18:42:05.088Z,100759.00
2022-10-24T18:44:35.261Z,100762.56
2022-10-24T18:47:08.111Z,100766.06
2022-10-24T18:49:37.219Z,100765.19
2022-10-24T18:52:19.655Z,100757.31
2022-10-24T18:55:14.506Z,100766.16
2022-10-24T18:57:45.484Z,100761.84
2022-10-24T19:00:18.452Z,100770.66
2022-10-24T19:02:57.199Z,100776.84
2022-10-24T19:05:42.706Z,100773.44
2022-10-24T19:08:17.864Z,100772.59
2022-10-24T19:10:47.901Z,100787.63
2022-10-24T19:13:16.466Z,100791.13
2022-10-24T19:15:49.103Z,100794.72
2022-10-24T19:18:19.444Z,100791.25
2022-10-24T19:20:47.731Z,100789.47
2022-10-24T19:23:17.407Z,100786.91
2022-10-24T19:25:48.292Z,100790.47
2022-10-24T19:28:19.348Z,100784.31
2022-10-24T19:30:49.445Z,100793.13
2022-10-24T19:33:18.774Z,100783.47
2022-10-24T19:35:48.185Z,100785.19
2022-10-24T19:38:18.130Z,100786.94
2022-10-24T19:40:49.620Z,100789.59
2022-10-24T19:43:17.780Z,100796.63
2022-10-24T19:45:50.419Z,100789.63
2022-10-24T19:48:33.479Z,100784.38
2022-10-24T19:51:06.168Z,100789.66
2022-10-24T19:53:35.870Z,100787.09
2022-10-24T19:56:07.761Z,100787.09
2022-10-24T19:58:36.985Z,100793.25
2022-10-24T20:01:07.442Z,100791.53
2022-10-24T20:03:38.130Z,100788.91
2022-10-24T20:06:08.912Z,100791.56
2022-10-24T20:08:37.987Z,100804.78
2022-10-24T20:11:08.685Z,100803.94
2022-10-24T20:13:37.326Z,100810.97
2022-10-24T20:16:08.208Z,100807.47
2022-10-24T20:18:38.691Z,100817.13
2022-10-24T20:21:13.172Z,100811.03
2022-10-24T20:23:42.180Z,100812.81
2022-10-24T20:26:15.036Z,100811.09
2022-10-24T20:28:45.810Z,100819.91
2022-10-24T20:31:22.630Z,100812.94
2022-10-24T20:33:51.537Z,100818.25
2022-10-24T20:36:22.006Z,100813.00
2022-10-24T20:38:50.833Z,100811.28
2022-10-24T20:41:20.806Z,100815.69
2022-10-24T20:46:18.003Z,100816.66
2022-10-24T20:48:46.059Z,100821.94
2022-10-24T20:51:16.075Z,100821.97
2022-10-24T20:53:44.658Z,100823.75
2022-10-24T20:56:15.149Z,100829.06
2022-10-24T20:58:46.034Z,100829.09
2022-10-24T21:01:16.932Z,100832.63
2022-10-24T21:03:45.969Z,100830.91
2022-10-24T21:06:19.892Z,100834.44
2022-10-24T21:08:49.793Z,100842.34
2022-10-24T21:11:24.585Z,100837.13
2022-10-24T21:13:57.809Z,100845.88
2022-10-24T21:16:26.702Z,100847.69
2022-10-24T21:18:55.542Z,100846.84
2022-10-24T21:21:23.878Z,100845.06
2022-10-24T21:23:53.298Z,100846.84
2022-10-24T21:26:21.901Z,100853.88
2022-10-24T21:28:53.996Z,100860.88
2022-10-24T21:31:28.867Z,100859.16
2022-10-24T21:33:56.947Z,100865.31
2022-10-24T21:36:25.498Z,100854.81
2022-10-24T21:38:57.029Z,100862.72
2022-10-24T21:41:26.150Z,100866.25
2022-10-24T21:43:56.048Z,100861.91
2022-10-24T21:46:26.801Z,100859.31
2022-10-24T21:48:57.387Z,100860.19
2022-10-24T21:51:28.354Z,100866.34
2022-10-24T21:53:58.389Z,100866.34
2022-10-24T21:56:30.517Z,100870.75
2022-10-24T22:01:37.326Z,100868.16
2022-10-24T22:04:08.167Z,100876.09
2022-10-24T22:06:37.649Z,100874.31
2022-10-24T22:09:08.233Z,100882.22
2022-10-24T22:11:37.673Z,100881.31
2022-10-24T22:14:07.329Z,100893.59
2022-10-24T22:16:35.523Z,100887.47
2022-10-24T22:19:07.284Z,100894.47
2022-10-24T22:21:37.966Z,100894.50
2022-10-24T22:24:08.956Z,100905.03
2022-10-24T22:26:38.065Z,100894.50
2022-10-24T22:29:07.810Z,100902.38
2022-10-24T22:31:37.959Z,100905.03
2022-10-24T22:34:09.116Z,100910.25
2022-10-24T22:36:49.757Z,100908.53
2022-10-24T22:39:21.481Z,100912.00
2022-10-24T22:41:50.788Z,100914.66
2022-10-24T22:44:21.579Z,100919.03
2022-10-24T22:47:38.038Z,100916.41
2022-10-24T22:50:31.022Z,100918.19
2022-10-24T22:52:59.905Z,100919.91
2022-10-24T22:55:36.097Z,100923.44
2022-10-24T22:58:05.198Z,100920.78
2022-10-24T23:00:33.963Z,100917.25
2022-10-24T23:03:11.900Z,100928.63
2022-10-24T23:08:33.694Z,100927.78
2022-10-24T23:11:02.496Z,100934.81
2022-10-24T23:13:31.313Z,100927.81
2022-10-24T23:16:07.824Z,100931.34
2022-10-24T23:18:36.754Z,100936.59
2022-10-24T23:21:17.021Z,100940.09
2022-10-24T23:23:45.898Z,100945.34
2022-10-24T23:26:27.185Z,100947.97
2022-10-24T23:29:02.780Z,100944.50
2022-10-24T23:31:31.788Z,100951.47
2022-10-24T23:34:00.594Z,100947.97
2022-10-24T23:36:32.382Z,100950.63
2022-10-24T23:39:01.935Z,100947.13
2022-10-24T23:41:30.694Z,100951.47
2022-10-24T23:43:59.580Z,100950.59
2022-10-24T23:46:33.588Z,100942.69
2022-10-24T23:49:20.234Z,100954.94
2022-10-24T23:51:59.490Z,100954.94
2022-10-24T23:54:32.938Z,100956.69
2022-10-24T23:57:01.886Z,100956.69
2022-10-24T23:59:30.081Z,100959.28
